createdAt,value
2023-06-04T00:02:15.156Z,6.80
2023-06-04T00:04:41.955Z,7.53
2023-06-04T00:07:08.801Z,7.18
2023-06-04T00:09:35.752Z,7.22
2023-06-04T00:12:03.891Z,7.57
2023-06-04T00:14:30.708Z,6.68
2023-06-04T00:16:57.480Z,6.70
2023-06-04T00:19:24.229Z,6.63
2023-06-04T00:21:54.079Z,6.05
2023-06-04T00:24:20.815Z,6.00
2023-06-04T00:26:47.697Z,6.55
2023-06-04T00:29:14.425Z,5.63
2023-06-04T00:31:41.293Z,5.63
2023-06-04T00:34:08.052Z,5.97
2023-06-04T00:36:36.503Z,5.90
2023-06-04T00:39:03.771Z,6.47
2023-06-04T00:41:33.371Z,6.03
2023-06-04T00:44:02.919Z,6.13
2023-06-04T00:46:29.879Z,6.45
2023-06-04T00:48:57.213Z,5.07
2023-06-04T00:51:24.436Z,6.43
2023-06-04T00:53:51.869Z,5.87
2023-06-04T00:56:19.638Z,5.72
2023-06-04T00:58:47.911Z,6.22
2023-06-04T01:01:30.004Z,6.32
2023-06-04T01:03:59.251Z,5.63
2023-06-04T01:06:39.491Z,5.70
2023-06-04T01:09:07.244Z,6.10
2023-06-04T01:11:39.693Z,5.82
2023-06-04T01:14:11.824Z,5.60
2023-06-04T01:17:03.305Z,6.07
2023-06-04T01:19:55.693Z,6.20
2023-06-04T01:22:40.673Z,6.35
2023-06-04T01:25:20.295Z,6.65
2023-06-04T01:27:56.977Z,6.43
2023-06-04T01:30:27.526Z,6.22
2023-06-04T01:32:56.015Z,6.80
2023-06-04T01:35:23.995Z,6.55
2023-06-04T01:37:53.010Z,6.57
2023-06-04T01:40:20.049Z,6.65
2023-06-04T01:42:47.909Z,6.47
2023-06-04T01:45:14.640Z,6.13
2023-06-04T01:47:41.525Z,6.40
2023-06-04T01:50:12.078Z,6.53
2023-06-04T01:52:40.056Z,5.88
2023-06-04T01:55:09.082Z,6.85
2023-06-04T01:57:39.678Z,6.50
2023-06-04T02:00:11.629Z,6.25
2023-06-04T02:02:39.439Z,6.53
2023-06-04T02:05:09.620Z,5.63
2023-06-04T02:07:39.579Z,6.47
2023-06-04T02:10:11.357Z,5.30
2023-06-04T02:12:40.096Z,5.07
2023-06-04T02:15:08.607Z,5.78
2023-06-04T02:17:38.704Z,5.65
2023-06-04T02:20:07.102Z,5.90
2023-06-04T02:22:33.889Z,5.53
2023-06-04T02:25:01.131Z,5.07
2023-06-04T02:27:27.887Z,5.53
2023-06-04T02:29:54.691Z,4.72
2023-06-04T02:32:21.556Z,5.22
2023-06-04T02:34:48.355Z,3.63
2023-06-04T02:37:15.142Z,4.03
2023-06-04T02:39:41.979Z,2.58
2023-06-04T02:42:09.012Z,2.47
2023-06-04T02:44:35.735Z,2.60
2023-06-04T02:47:02.513Z,3.17
2023-06-04T02:49:29.391Z,2.83
2023-06-04T02:51:56.109Z,3.22
2023-06-04T02:54:22.879Z,2.50
2023-06-04T02:56:50.407Z,2.75
2023-06-04T02:59:18.033Z,2.73
2023-06-04T03:01:45.132Z,3.03
2023-06-04T03:04:15.839Z,3.25
2023-06-04T03:06:46.179Z,3.50
2023-06-04T03:09:13.634Z,2.47
2023-06-04T03:11:40.792Z,2.57
2023-06-04T03:14:07.560Z,2.75
2023-06-04T03:16:34.315Z,2.22
2023-06-04T03:19:01.127Z,2.95
2023-06-04T03:21:30.183Z,2.78
2023-06-04T03:23:57.600Z,3.30
2023-06-04T03:26:27.820Z,3.03
2023-06-04T03:28:55.045Z,3.03
2023-06-04T03:31:24.252Z,4.13
2023-06-04T03:33:51.106Z,4.22
2023-06-04T03:36:17.877Z,4.30
2023-06-04T03:38:47.504Z,4.10
2023-06-04T03:41:14.592Z,3.38
2023-06-04T03:43:41.319Z,3.05
2023-06-04T03:46:08.166Z,3.60
2023-06-04T03:48:34.894Z,2.93
2023-06-04T03:51:03.934Z,3.70
2023-06-04T03:53:30.855Z,3.42
2023-06-04T03:55:57.728Z,3.70
2023-06-04T03:58:25.187Z,3.13
2023-06-04T04:00:52.678Z,3.30
2023-06-04T04:03:19.572Z,2.88
2023-06-04T04:05:46.393Z,2.80
2023-06-04T04:08:13.194Z,3.20
2023-06-04T04:10:39.971Z,3.30
2023-06-04T04:13:06.842Z,3.00
2023-06-04T04:15:36.536Z,4.18
2023-06-04T04:18:04.471Z,3.58
2023-06-04T04:20:31.288Z,3.13
2023-06-04T04:23:01.181Z,3.55
2023-06-04T04:25:28.339Z,3.20
2023-06-04T04:27:57.523Z,3.55
2023-06-04T04:30:24.672Z,3.75
2023-06-04T04:32:52.630Z,3.65
2023-06-04T04:35:19.679Z,3.40
2023-06-04T04:37:48.961Z,3.50
2023-06-04T04:40:15.843Z,3.67
2023-06-04T04:42:43.119Z,3.33
2023-06-04T04:45:10.795Z,3.33
2023-06-04T04:47:38.294Z,3.05
2023-06-04T04:50:07.075Z,3.53
2023-06-04T04:52:33.820Z,3.80
2023-06-04T04:55:00.546Z,3.20
2023-06-04T04:57:27.303Z,3.63
2023-06-04T04:59:54.040Z,4.25
2023-06-04T05:02:21.151Z,3.67
2023-06-04T05:04:47.968Z,3.35
2023-06-04T05:07:14.727Z,3.83
2023-06-04T05:09:41.723Z,3.88
2023-06-04T05:12:08.452Z,3.90
2023-06-04T05:14:38.141Z,2.90
2023-06-04T05:17:05.103Z,3.03
2023-06-04T05:19:34.003Z,3.08
2023-06-04T05:22:01.892Z,3.67
2023-06-04T05:24:32.177Z,3.35
2023-06-04T05:26:58.973Z,3.10
2023-06-04T05:29:25.900Z,3.20
2023-06-04T05:31:55.594Z,3.00
2023-06-04T05:34:22.654Z,3.25
2023-06-04T05:36:49.417Z,2.58
2023-06-04T05:39:16.230Z,2.77
2023-06-04T05:41:45.892Z,2.65
2023-06-04T05:44:12.593Z,2.63
2023-06-04T05:46:42.491Z,3.42
2023-06-04T05:49:09.300Z,3.42
2023-06-04T05:51:37.148Z,2.50
2023-06-04T05:54:04.686Z,2.67
2023-06-04T05:56:31.445Z,3.17
2023-06-04T05:58:58.190Z,3.38
2023-06-04T06:01:24.952Z,3.38
2023-06-04T06:03:52.086Z,2.80
2023-06-04T06:06:19.826Z,2.70
2023-06-04T06:08:46.750Z,3.50
2023-06-04T06:11:14.113Z,4.32
2023-06-04T06:13:41.378Z,3.40
2023-06-04T06:16:08.108Z,3.47
2023-06-04T06:18:34.928Z,3.90
2023-06-04T06:21:01.651Z,3.22
2023-06-04T06:23:31.447Z,3.15
2023-06-04T06:25:58.355Z,3.85
2023-06-04T06:28:25.083Z,2.90
2023-06-04T06:30:51.950Z,3.42
2023-06-04T06:33:22.596Z,3.60
2023-06-04T06:35:49.460Z,3.20
2023-06-04T06:38:18.555Z,3.50
2023-06-04T06:40:45.839Z,2.37
2023-06-04T06:43:12.714Z,2.92
2023-06-04T06:45:39.484Z,3.55
2023-06-04T06:48:06.591Z,2.90
2023-06-04T06:50:34.592Z,2.50
2023-06-04T06:53:01.388Z,3.73
2023-06-04T06:55:28.133Z,2.20
2023-06-04T06:57:56.289Z,2.92
2023-06-04T07:00:25.135Z,2.15
2023-06-04T07:02:52.094Z,2.95
2023-06-04T07:05:19.116Z,2.20
2023-06-04T07:07:45.854Z,2.60
2023-06-04T07:10:12.647Z,2.60
2023-06-04T07:12:42.092Z,2.50
2023-06-04T07:15:10.526Z,2.78
2023-06-04T07:17:37.955Z,1.80
2023-06-04T07:20:08.093Z,2.33
2023-06-04T07:22:35.805Z,2.50
2023-06-04T07:25:05.332Z,2.20
2023-06-04T07:27:32.277Z,2.00
2023-06-04T07:30:00.141Z,2.93
2023-06-04T07:32:27.060Z,3.00
2023-06-04T07:34:53.884Z,2.35
2023-06-04T07:37:20.766Z,2.80
2023-06-04T07:39:47.730Z,2.95
2023-06-04T07:42:14.959Z,3.33
2023-06-04T07:44:41.835Z,3.22
2023-06-04T07:47:08.682Z,2.97
2023-06-04T07:49:35.783Z,2.40
2023-06-04T07:52:03.148Z,2.60
2023-06-04T07:54:29.911Z,2.37
2023-06-04T07:56:57.464Z,2.50
2023-06-04T07:59:27.819Z,2.15
2023-06-04T08:01:54.513Z,2.00
2023-06-04T08:04:21.505Z,1.92
2023-06-04T08:06:48.449Z,2.57
2023-06-04T08:09:15.153Z,1.73
2023-06-04T08:11:44.564Z,2.20
2023-06-04T08:14:13.652Z,2.33
2023-06-04T08:16:41.906Z,1.75
2023-06-04T08:19:11.769Z,2.23
2023-06-04T08:21:38.589Z,2.38
2023-06-04T08:24:05.454Z,2.33
2023-06-04T08:26:33.448Z,2.30
2023-06-04T08:29:06.465Z,2.15
2023-06-04T08:31:37.231Z,2.37
2023-06-04T08:34:06.371Z,2.38
2023-06-04T08:36:33.944Z,2.50
2023-06-04T08:39:00.796Z,2.60
2023-06-04T08:41:37.111Z,3.28
2023-06-04T08:44:07.495Z,2.30
2023-06-04T08:46:40.583Z,2.92
2023-06-04T08:49:08.459Z,3.72
2023-06-04T08:51:38.527Z,3.00
2023-06-04T08:54:09.018Z,2.90
2023-06-04T08:56:37.094Z,2.20
2023-06-04T08:59:06.365Z,3.25
2023-06-04T09:01:34.812Z,2.90
2023-06-04T09:04:08.755Z,2.20
2023-06-04T09:06:38.895Z,2.10
2023-06-04T09:09:10.617Z,2.37
2023-06-04T09:11:42.893Z,2.53
2023-06-04T09:14:12.658Z,2.30
2023-06-04T09:16:46.672Z,2.70
2023-06-04T09:19:13.472Z,2.17
2023-06-04T09:22:07.561Z,2.40
2023-06-04T09:24:47.930Z,2.63
2023-06-04T09:27:19.877Z,2.58
2023-06-04T09:29:59.286Z,2.47
2023-06-04T09:32:34.161Z,2.30
2023-06-04T09:35:15.216Z,2.50
2023-06-04T09:37:55.190Z,2.58
2023-06-04T09:40:22.300Z,3.03
2023-06-04T09:42:55.218Z,2.42
2023-06-04T09:45:30.291Z,2.42
2023-06-04T09:47:57.339Z,2.60
2023-06-04T09:50:28.562Z,2.50
2023-06-04T09:52:56.223Z,2.65
2023-06-04T09:55:23.813Z,2.92
2023-06-04T09:57:51.723Z,2.90
2023-06-04T10:00:19.909Z,2.47
2023-06-04T10:02:47.872Z,2.55
2023-06-04T10:05:21.734Z,2.05
2023-06-04T10:07:52.830Z,2.38
2023-06-04T10:10:24.472Z,2.30
2023-06-04T10:13:08.013Z,2.90
2023-06-04T10:15:37.028Z,2.33
2023-06-04T10:18:05.142Z,2.15
2023-06-04T10:20:33.073Z,1.90
2023-06-04T10:23:01.620Z,1.90
2023-06-04T10:25:29.784Z,2.30
2023-06-04T10:27:57.063Z,2.80
2023-06-04T10:30:27.044Z,2.70
2023-06-04T10:32:54.637Z,2.60
2023-06-04T10:35:37.408Z,2.20
2023-06-04T10:38:11.701Z,2.40
2023-06-04T10:40:39.339Z,2.13
2023-06-04T10:43:10.618Z,2.10
2023-06-04T10:45:37.966Z,2.22
2023-06-04T10:48:06.838Z,2.17
2023-06-04T10:50:34.923Z,2.10
2023-06-04T10:53:05.670Z,2.63
2023-06-04T10:55:32.955Z,2.85
2023-06-04T10:58:02.134Z,2.45
2023-06-04T11:00:53.271Z,2.35
2023-06-04T11:03:21.689Z,2.47
2023-06-04T11:05:49.047Z,2.10
2023-06-04T11:08:29.562Z,2.80
2023-06-04T11:10:56.754Z,2.60
2023-06-04T11:13:29.579Z,2.15
2023-06-04T11:15:56.956Z,2.30
2023-06-04T11:18:26.825Z,2.40
2023-06-04T11:21:07.092Z,2.30
2023-06-04T11:23:35.030Z,2.13
2023-06-04T11:26:02.426Z,2.45
2023-06-04T11:28:29.186Z,2.53
2023-06-04T11:31:06.842Z,2.30
2023-06-04T11:33:48.104Z,2.10
2023-06-04T11:36:26.340Z,1.50
2023-06-04T11:38:57.424Z,2.15
2023-06-04T11:41:24.950Z,1.77
2023-06-04T11:43:51.672Z,1.88
2023-06-04T11:46:18.886Z,1.77
2023-06-04T11:48:45.903Z,1.90
2023-06-04T11:51:15.526Z,1.60
2023-06-04T11:53:42.567Z,1.50
2023-06-04T11:56:09.946Z,1.60
2023-06-04T11:58:36.917Z,1.35
2023-06-04T12:01:04.009Z,1.40
2023-06-04T12:03:48.565Z,1.50
2023-06-04T12:06:22.662Z,1.30
2023-06-04T12:08:55.126Z,1.23
2023-06-04T12:11:35.229Z,1.20
2023-06-04T12:14:06.984Z,1.38
2023-06-04T12:16:36.533Z,1.10
2023-06-04T12:19:11.350Z,1.50
2023-06-04T12:21:43.170Z,1.40
2023-06-04T12:24:16.939Z,1.00
2023-06-04T12:26:47.463Z,1.50
2023-06-04T12:29:21.322Z,1.73
2023-06-04T12:31:48.140Z,1.30
2023-06-04T12:34:15.225Z,1.42
2023-06-04T12:36:44.399Z,1.80
2023-06-04T12:39:11.224Z,1.20
2023-06-04T12:41:37.981Z,1.20
2023-06-04T12:44:04.870Z,1.60
2023-06-04T12:46:31.888Z,1.52
2023-06-04T12:48:58.661Z,1.20
2023-06-04T12:51:25.474Z,1.85
2023-06-04T12:53:52.478Z,1.40
2023-06-04T12:56:19.231Z,0.97
2023-06-04T12:58:46.036Z,1.70
2023-06-04T13:01:14.141Z,1.60
2023-06-04T13:03:46.689Z,1.50
2023-06-04T13:06:13.790Z,1.70
2023-06-04T13:08:41.986Z,1.60
2023-06-04T13:11:09.448Z,2.10
2023-06-04T13:13:36.647Z,1.70
2023-06-04T13:16:03.894Z,1.73
2023-06-04T13:18:33.371Z,1.90
2023-06-04T13:21:02.373Z,1.23
2023-06-04T13:23:41.439Z,1.35
2023-06-04T13:26:16.548Z,1.60
2023-06-04T13:28:43.274Z,1.45
2023-06-04T13:31:10.026Z,1.88
2023-06-04T13:33:37.618Z,1.57
2023-06-04T13:36:05.683Z,2.20
2023-06-04T13:38:33.218Z,2.08
2023-06-04T13:41:00.181Z,2.03
2023-06-04T13:43:27.229Z,2.17
2023-06-04T13:45:56.104Z,1.77
2023-06-04T13:48:22.894Z,2.22
2023-06-04T13:50:50.765Z,2.63
2023-06-04T13:53:17.623Z,2.35
2023-06-04T13:55:44.436Z,2.30
2023-06-04T13:58:11.286Z,2.37
2023-06-04T14:00:37.964Z,2.58
2023-06-04T14:03:04.910Z,3.20
2023-06-04T14:05:31.780Z,2.30
2023-06-04T14:08:01.370Z,2.67
2023-06-04T14:10:30.766Z,2.40
2023-06-04T14:12:57.498Z,2.42
2023-06-04T14:15:24.328Z,3.03
2023-06-04T14:17:51.816Z,2.67
2023-06-04T14:20:18.599Z,2.65
2023-06-04T14:22:45.504Z,2.90
2023-06-04T14:25:12.255Z,2.47
2023-06-04T14:27:39.000Z,2.83
2023-06-04T14:30:06.374Z,2.70
2023-06-04T14:32:35.116Z,2.53
2023-06-04T14:35:02.037Z,2.70
2023-06-04T14:37:28.813Z,2.95
2023-06-04T14:39:55.572Z,2.72
2023-06-04T14:42:22.347Z,2.40
2023-06-04T14:44:49.092Z,2.50
2023-06-04T14:47:16.233Z,2.60
2023-06-04T14:49:43.269Z,2.38
2023-06-04T14:52:10.400Z,2.65
2023-06-04T14:54:38.313Z,2.58
2023-06-04T14:57:05.560Z,2.42
2023-06-04T14:59:34.653Z,1.93
2023-06-04T15:02:02.203Z,2.33
2023-06-04T15:04:28.995Z,2.47
2023-06-04T15:06:55.702Z,3.00
2023-06-04T15:09:25.469Z,2.50
2023-06-04T15:11:52.170Z,2.60
2023-06-04T15:14:18.909Z,2.58
2023-06-04T15:16:45.892Z,2.25
2023-06-04T15:19:12.697Z,2.70
2023-06-04T15:21:44.894Z,2.63
2023-06-04T15:24:12.041Z,2.57
2023-06-04T15:26:38.958Z,2.28
2023-06-04T15:29:07.256Z,3.20
2023-06-04T15:31:37.085Z,2.83
2023-06-04T15:34:03.871Z,2.83
2023-06-04T15:36:30.627Z,2.40
2023-06-04T15:38:57.364Z,2.63
2023-06-04T15:41:25.174Z,3.20
2023-06-04T15:43:54.227Z,2.88
2023-06-04T15:46:24.537Z,2.97
2023-06-04T15:48:53.523Z,2.87
2023-06-04T15:51:20.272Z,3.60
2023-06-04T15:53:47.034Z,3.30
2023-06-04T15:56:17.269Z,3.83
2023-06-04T15:58:45.155Z,3.13
2023-06-04T16:01:12.137Z,2.73
2023-06-04T16:03:39.025Z,3.38
2023-06-04T16:06:06.439Z,3.22
2023-06-04T16:08:35.487Z,3.28
2023-06-04T16:11:02.177Z,3.50
2023-06-04T16:13:29.054Z,3.70
2023-06-04T16:15:56.860Z,3.47
2023-06-04T16:18:26.672Z,3.08
2023-06-04T16:20:53.503Z,2.80
2023-06-04T16:23:20.253Z,2.60
2023-06-04T16:25:47.208Z,2.60
2023-06-04T16:28:15.640Z,2.67
2023-06-04T16:30:42.415Z,2.88
2023-06-04T16:33:10.699Z,2.50
2023-06-04T16:35:38.179Z,3.15
2023-06-04T16:38:05.172Z,2.67
2023-06-04T16:40:33.631Z,3.05
2023-06-04T16:43:00.544Z,2.60
2023-06-04T16:45:27.317Z,2.55
2023-06-04T16:47:55.196Z,2.50
2023-06-04T16:50:21.970Z,3.00
2023-06-04T16:52:51.763Z,2.75
2023-06-04T16:55:18.580Z,3.20
2023-06-04T16:57:45.565Z,3.08
2023-06-04T17:00:25.568Z,3.03
2023-06-04T17:02:58.026Z,2.20
2023-06-04T17:05:27.932Z,3.42
2023-06-04T17:07:55.119Z,2.72
2023-06-04T17:10:29.049Z,2.55
2023-06-04T17:12:55.810Z,2.60
2023-06-04T17:15:22.592Z,3.00
2023-06-04T17:17:51.224Z,2.67
2023-06-04T17:20:18.286Z,3.53
2023-06-04T17:22:44.986Z,3.08
2023-06-04T17:25:14.087Z,3.45
2023-06-04T17:27:40.845Z,2.93
2023-06-04T17:30:08.261Z,3.00
2023-06-04T17:32:35.074Z,3.38
2023-06-04T17:35:01.868Z,3.67
2023-06-04T17:37:28.558Z,2.83
2023-06-04T17:39:55.338Z,3.50
2023-06-04T17:42:22.138Z,3.35
2023-06-04T17:44:48.828Z,2.78
2023-06-04T17:47:15.918Z,3.30
2023-06-04T17:49:42.696Z,3.22
2023-06-04T17:52:09.437Z,2.80
2023-06-04T17:54:36.149Z,3.30
2023-06-04T17:57:05.896Z,2.88
2023-06-04T17:59:32.587Z,3.30
2023-06-04T18:02:02.442Z,3.38
2023-06-04T18:04:29.329Z,3.30
2023-06-04T18:06:58.420Z,3.17
2023-06-04T18:09:26.544Z,3.05
2023-06-04T18:11:53.295Z,2.60
2023-06-04T18:14:20.021Z,2.70
2023-06-04T18:16:46.759Z,3.10
2023-06-04T18:19:14.227Z,3.35
2023-06-04T18:21:40.916Z,3.08
2023-06-04T18:24:07.823Z,2.72
2023-06-04T18:26:34.676Z,2.25
2023-06-04T18:29:04.524Z,2.87
2023-06-04T18:31:31.412Z,3.35
2023-06-04T18:34:01.699Z,2.78
2023-06-04T18:36:29.672Z,3.45
2023-06-04T18:38:59.396Z,2.90
2023-06-04T18:41:27.995Z,3.47
2023-06-04T18:43:54.742Z,3.38
2023-06-04T18:46:21.687Z,3.47
2023-06-04T18:48:48.465Z,3.08
2023-06-04T18:51:15.537Z,3.25
2023-06-04T18:53:42.669Z,3.70
2023-06-04T18:56:09.775Z,3.10
2023-06-04T18:58:38.063Z,3.28
2023-06-04T19:01:04.831Z,2.50
2023-06-04T19:03:31.911Z,2.53
2023-06-04T19:06:02.089Z,3.10
2023-06-04T19:08:28.859Z,3.25
2023-06-04T19:10:58.362Z,2.92
2023-06-04T19:13:25.218Z,2.95
2023-06-04T19:15:54.194Z,3.67
2023-06-04T19:18:21.507Z,3.50
2023-06-04T19:20:48.232Z,3.70
2023-06-04T19:23:15.109Z,3.38
2023-06-04T19:25:41.931Z,3.20
2023-06-04T19:28:09.727Z,3.17
2023-06-04T19:30:52.274Z,3.50
2023-06-04T19:33:21.138Z,3.13
2023-06-04T19:35:48.317Z,3.25
2023-06-04T19:38:19.430Z,3.13
2023-06-04T19:40:46.480Z,3.28
2023-06-04T19:43:13.228Z,3.20
2023-06-04T19:45:40.124Z,3.45
2023-06-04T19:48:07.139Z,3.75
2023-06-04T19:50:36.279Z,3.75
2023-06-04T19:53:03.048Z,3.60
2023-06-04T19:55:34.113Z,3.00
2023-06-04T19:58:01.395Z,3.58
2023-06-04T20:00:28.259Z,3.53
2023-06-04T20:02:55.715Z,3.58
2023-06-04T20:05:25.017Z,3.80
2023-06-04T20:07:52.003Z,4.07
2023-06-04T20:10:19.646Z,4.05
2023-06-04T20:12:46.353Z,4.13
2023-06-04T20:15:13.138Z,3.65
2023-06-04T20:17:42.489Z,4.90
2023-06-04T20:20:12.536Z,5.10
2023-06-04T20:22:39.353Z,4.57
2023-06-04T20:25:09.237Z,4.35
2023-06-04T20:27:36.156Z,4.30
2023-06-04T20:30:03.160Z,3.63
2023-06-04T20:32:30.004Z,3.90
2023-06-04T20:34:56.970Z,3.50
2023-06-04T20:37:23.777Z,3.40
2023-06-04T20:39:50.746Z,4.18
2023-06-04T20:42:17.467Z,3.90
2023-06-04T20:44:44.171Z,3.10
2023-06-04T20:47:13.487Z,3.53
2023-06-04T20:49:40.262Z,3.70
2023-06-04T20:52:07.041Z,3.55
2023-06-04T20:54:33.846Z,3.55
2023-06-04T20:57:01.668Z,3.87
2023-06-04T20:59:28.395Z,3.90
2023-06-04T21:01:55.212Z,3.17
2023-06-04T21:04:22.085Z,3.80
2023-06-04T21:06:50.312Z,3.80
2023-06-04T21:09:18.200Z,3.80
2023-06-04T21:11:46.069Z,3.45
2023-06-04T21:14:12.803Z,3.60
2023-06-04T21:16:39.782Z,3.92
2023-06-04T21:19:06.607Z,4.10
2023-06-04T21:21:33.382Z,3.73
2023-06-04T21:24:00.258Z,3.58
2023-06-04T21:26:27.895Z,3.58
2023-06-04T21:28:54.645Z,4.03
2023-06-04T21:31:22.678Z,4.10
2023-06-04T21:33:49.435Z,3.90
2023-06-04T21:36:16.697Z,4.15
2023-06-04T21:38:43.809Z,3.65
2023-06-04T21:41:10.954Z,4.38
2023-06-04T21:43:38.006Z,4.53
2023-06-04T21:46:05.917Z,5.20
2023-06-04T21:48:32.817Z,4.45
2023-06-04T21:50:59.637Z,3.97
2023-06-04T21:53:26.420Z,4.50
2023-06-04T21:55:53.173Z,3.80
2023-06-04T21:58:21.659Z,3.90
2023-06-04T22:00:49.096Z,3.90
2023-06-04T22:03:16.152Z,4.25
2023-06-04T22:05:43.450Z,4.50
2023-06-04T22:08:10.361Z,4.30
2023-06-04T22:10:37.112Z,3.83
2023-06-04T22:13:06.662Z,4.22
2023-06-04T22:15:33.660Z,4.60
2023-06-04T22:18:03.413Z,4.28
2023-06-04T22:20:30.180Z,4.18
2023-06-04T22:22:56.923Z,4.60
2023-06-04T22:25:23.711Z,4.22
2023-06-04T22:27:50.529Z,3.60
2023-06-04T22:30:19.605Z,4.55
2023-06-04T22:32:46.364Z,4.28
2023-06-04T22:35:13.111Z,4.17
2023-06-04T22:37:39.878Z,4.60
2023-06-04T22:40:07.382Z,4.50
2023-06-04T22:42:34.244Z,4.30
2023-06-04T22:45:01.068Z,4.43
2023-06-04T22:47:30.848Z,4.17
2023-06-04T22:50:00.184Z,4.30
2023-06-04T22:52:27.090Z,4.95
2023-06-04T22:54:53.876Z,4.88
2023-06-04T22:57:20.650Z,4.60
2023-06-04T22:59:47.394Z,4.80
2023-06-04T23:02:14.210Z,4.75
2023-06-04T23:04:41.067Z,5.97
2023-06-04T23:07:07.846Z,5.28
2023-06-04T23:09:34.562Z,5.07
2023-06-04T23:12:01.386Z,4.23
2023-06-04T23:14:28.097Z,4.40
2023-06-04T23:16:54.927Z,4.57
2023-06-04T23:19:21.762Z,5.07
2023-06-04T23:21:48.470Z,5.18
2023-06-04T23:24:15.257Z,5.13
2023-06-04T23:26:41.990Z,5.28
2023-06-04T23:29:08.738Z,4.95
2023-06-04T23:31:35.954Z,5.25
2023-06-04T23:34:02.781Z,5.05
2023-06-04T23:36:29.549Z,4.97
2023-06-04T23:38:56.358Z,5.25
2023-06-04T23:41:23.067Z,5.30
2023-06-04T23:43:49.808Z,4.68
2023-06-04T23:46:16.788Z,4.45
2023-06-04T23:48:43.776Z,5.20
2023-06-04T23:51:10.878Z,4.90
2023-06-04T23:53:37.794Z,4.65
2023-06-04T23:56:07.169Z,4.95
2023-06-04T23:58:33.954Z,4.78
